createdAt,value
2022-08-28T00:01:06.408Z,90.21
2022-08-28T00:03:33.777Z,92.71
2022-08-28T00:06:02.458Z,95.34
2022-08-28T00:08:30.681Z,95.72
2022-08-28T00:10:57.934Z,96.67
2022-08-28T00:13:25.863Z,96.76
2022-08-28T00:16:01.154Z,97.97
2022-08-28T00:18:31.322Z,98.44
2022-08-28T00:20:59.565Z,99.48
2022-08-28T00:23:30.411Z,100.00
2022-08-28T00:26:31.976Z,100.00
2022-08-28T00:29:00.036Z,100.00
2022-08-28T00:31:27.628Z,100.00
2022-08-28T00:33:54.893Z,99.84
2022-08-28T00:36:22.144Z,100.00
2022-08-28T00:38:50.583Z,100.00
2022-08-28T00:41:17.840Z,100.00
2022-08-28T00:44:15.203Z,100.00
2022-08-28T00:46:46.170Z,100.00
2022-08-28T00:49:16.466Z,100.00
2022-08-28T00:52:02.450Z,100.00
2022-08-28T00:54:33.152Z,100.00
2022-08-28T00:57:03.935Z,100.00
2022-08-28T00:59:31.465Z,100.00
2022-08-28T01:01:59.588Z,100.00
2022-08-28T01:04:29.709Z,100.00
2022-08-28T01:06:58.053Z,100.00
2022-08-28T01:09:28.227Z,100.00
2022-08-28T01:12:03.109Z,100.00
2022-08-28T01:14:32.633Z,100.00
2022-08-28T01:17:00.545Z,100.00
2022-08-28T01:19:37.413Z,100.00
2022-08-28T01:22:20.645Z,100.00
2022-08-28T01:24:49.844Z,100.00
2022-08-28T01:27:18.801Z,100.00
2022-08-28T01:29:47.954Z,100.00
2022-08-28T01:32:41.059Z,100.00
2022-08-28T01:35:12.993Z,100.00
2022-08-28T01:37:40.321Z,100.00
2022-08-28T01:40:10.369Z,100.00
2022-08-28T01:42:42.801Z,100.00
2022-08-28T01:45:14.664Z,100.00
2022-08-28T01:47:44.160Z,100.00
2022-08-28T01:50:14.923Z,100.00
2022-08-28T01:52:42.681Z,100.00
2022-08-28T01:55:11.386Z,100.00
2022-08-28T01:57:44.647Z,100.00
2022-08-28T02:00:13.771Z,100.00
2022-08-28T02:02:41.156Z,100.00
2022-08-28T02:05:09.996Z,100.00
2022-08-28T02:07:38.231Z,100.00
2022-08-28T02:10:07.476Z,100.00
2022-08-28T02:12:36.015Z,100.00
2022-08-28T02:15:08.229Z,100.00
2022-08-28T02:17:35.550Z,100.00
2022-08-28T02:20:03.751Z,100.00
2022-08-28T02:22:31.212Z,100.00
2022-08-28T02:24:58.415Z,100.00
2022-08-28T02:27:25.721Z,100.00
2022-08-28T02:29:53.561Z,100.00
2022-08-28T02:32:20.790Z,100.00
2022-08-28T02:34:47.979Z,100.00
2022-08-28T02:37:15.609Z,100.00
2022-08-28T02:39:42.803Z,100.00
2022-08-28T02:42:10.005Z,100.00
2022-08-28T02:44:38.547Z,100.00
2022-08-28T02:47:05.816Z,100.00
2022-08-28T02:49:36.159Z,100.00
2022-08-28T02:52:06.801Z,100.00
2022-08-28T02:54:34.985Z,100.00
2022-08-28T02:57:02.446Z,100.00
2022-08-28T02:59:30.235Z,100.00
2022-08-28T03:01:57.832Z,100.00
2022-08-28T03:04:25.013Z,100.00
2022-08-28T03:06:52.527Z,100.00
2022-08-28T03:09:19.731Z,100.00
2022-08-28T03:11:46.953Z,100.00
2022-08-28T03:14:14.435Z,100.00
2022-08-28T03:16:41.646Z,100.00
2022-08-28T03:19:08.875Z,100.00
2022-08-28T03:21:36.323Z,100.00
2022-08-28T03:24:04.111Z,100.00
2022-08-28T03:26:32.020Z,100.00
2022-08-28T03:28:59.972Z,100.00
2022-08-28T03:31:30.241Z,100.00
2022-08-28T03:33:57.595Z,100.00
2022-08-28T03:36:28.456Z,97.98
2022-08-28T03:38:58.179Z,96.29
2022-08-28T03:41:29.238Z,96.25
2022-08-28T03:43:58.372Z,96.72
2022-08-28T03:46:26.915Z,97.05
2022-08-28T03:48:54.407Z,97.90
2022-08-28T03:51:29.619Z,98.20
2022-08-28T03:54:02.107Z,98.60
2022-08-28T03:56:31.395Z,99.46
2022-08-28T03:59:04.364Z,98.34
2022-08-28T04:01:33.617Z,98.70
2022-08-28T04:04:01.008Z,98.86
2022-08-28T04:06:28.236Z,98.46
2022-08-28T04:08:59.996Z,98.20
2022-08-28T04:11:27.893Z,97.30
2022-08-28T04:13:55.065Z,96.89
2022-08-28T04:16:22.522Z,97.00
2022-08-28T04:18:49.987Z,96.52
2022-08-28T04:21:20.877Z,94.09
2022-08-28T04:23:48.597Z,93.23
2022-08-28T04:26:18.877Z,90.50
2022-08-28T04:28:46.846Z,89.14
2022-08-28T04:31:15.416Z,89.19
2022-08-28T04:33:43.273Z,88.53
2022-08-28T04:36:15.123Z,88.61
2022-08-28T04:38:44.207Z,87.89
2022-08-28T04:41:15.165Z,87.98
2022-08-28T04:43:42.747Z,87.33
2022-08-28T04:46:12.983Z,88.77
2022-08-28T04:48:41.949Z,88.36
2022-08-28T04:51:11.615Z,86.29
2022-08-28T04:53:39.764Z,84.88
2022-08-28T04:56:10.495Z,87.53
2022-08-28T04:58:39.342Z,87.84
2022-08-28T05:01:10.140Z,86.40
2022-08-28T05:03:37.505Z,88.00
2022-08-28T05:06:05.483Z,85.67
2022-08-28T05:08:33.651Z,80.80
2022-08-28T05:11:33.240Z,63.52
2022-08-28T05:14:04.692Z,57.73
2022-08-28T05:16:34.676Z,54.54
2022-08-28T05:19:03.163Z,51.95
2022-08-28T05:21:30.618Z,50.79
2022-08-28T05:23:59.311Z,51.94
2022-08-28T05:26:29.725Z,49.21
2022-08-28T05:28:58.962Z,49.83
2022-08-28T05:31:27.482Z,53.11
2022-08-28T05:33:55.243Z,53.71
2022-08-28T05:36:25.351Z,56.24
2022-08-28T05:38:57.385Z,57.37
2022-08-28T05:41:29.266Z,56.87
2022-08-28T05:44:02.977Z,58.50
2022-08-28T05:46:31.198Z,61.42
2022-08-28T05:49:00.490Z,60.69
2022-08-28T05:51:28.630Z,62.79
2022-08-28T05:53:57.839Z,61.68
2022-08-28T05:56:29.963Z,63.84
2022-08-28T05:59:00.298Z,58.41
2022-08-28T06:01:30.220Z,51.73
2022-08-28T06:04:03.313Z,48.32
2022-08-28T06:06:34.422Z,42.83
2022-08-28T06:09:06.002Z,40.17
2022-08-28T06:11:34.052Z,38.78
2022-08-28T06:14:04.577Z,38.01
2022-08-28T06:16:32.595Z,35.28
2022-08-28T06:19:00.757Z,32.40
2022-08-28T06:21:29.280Z,31.51
2022-08-28T06:23:56.661Z,30.18
2022-08-28T06:26:24.187Z,29.80
2022-08-28T06:28:53.179Z,29.29
2022-08-28T06:31:24.777Z,27.04
2022-08-28T06:33:56.120Z,28.34
2022-08-28T06:36:27.359Z,28.87
2022-08-28T06:38:58.176Z,30.03
2022-08-28T06:41:27.261Z,29.56
2022-08-28T06:43:55.178Z,28.99
2022-08-28T06:46:23.018Z,28.46
2022-08-28T06:48:51.488Z,28.67
2022-08-28T06:51:18.838Z,28.26
2022-08-28T06:53:46.832Z,27.56
2022-08-28T06:56:26.552Z,27.22
2022-08-28T06:58:57.558Z,24.74
2022-08-28T07:01:29.725Z,26.95
2022-08-28T07:03:59.885Z,27.32
2022-08-28T07:06:31.048Z,27.44
2022-08-28T07:08:58.308Z,28.52
2022-08-28T07:11:29.102Z,28.41
2022-08-28T07:13:58.434Z,27.59
2022-08-28T07:16:29.685Z,25.68
2022-08-28T07:18:58.397Z,28.55
2022-08-28T07:21:26.373Z,26.97
2022-08-28T07:23:55.251Z,27.43
2022-08-28T07:26:24.877Z,28.06
2022-08-28T07:28:53.465Z,27.98
2022-08-28T07:31:38.459Z,29.52
2022-08-28T07:34:05.690Z,29.93
2022-08-28T07:36:32.922Z,30.49
2022-08-28T07:39:00.433Z,29.51
2022-08-28T07:41:30.689Z,28.61
2022-08-28T07:44:16.897Z,28.28
2022-08-28T07:46:45.036Z,30.60
2022-08-28T07:49:15.615Z,27.64
2022-08-28T07:51:42.778Z,25.91
2022-08-28T07:54:15.535Z,24.89
2022-08-28T07:56:46.402Z,24.28
2022-08-28T07:59:16.742Z,23.84
2022-08-28T08:01:47.868Z,23.67
2022-08-28T08:04:19.329Z,23.99
2022-08-28T08:06:47.104Z,23.53
2022-08-28T08:09:17.898Z,23.47
2022-08-28T08:11:46.140Z,24.01
2022-08-28T08:14:16.073Z,24.49
2022-08-28T08:16:45.895Z,24.79
2022-08-28T08:19:16.475Z,25.19
2022-08-28T08:21:46.883Z,24.14
2022-08-28T08:24:20.641Z,23.32
2022-08-28T08:26:59.204Z,23.12
2022-08-28T08:29:31.545Z,24.34
2022-08-28T08:32:06.163Z,25.34
2022-08-28T08:34:40.070Z,25.66
2022-08-28T08:37:07.854Z,24.22
2022-08-28T08:39:36.492Z,25.43
2022-08-28T08:42:07.611Z,25.68
2022-08-28T08:44:42.317Z,25.70
2022-08-28T08:47:43.602Z,25.11
2022-08-28T08:50:34.426Z,23.88
2022-08-28T08:53:19.010Z,23.97
2022-08-28T08:55:54.443Z,23.38
2022-08-28T08:58:31.753Z,24.48
2022-08-28T09:01:29.070Z,23.20
2022-08-28T09:03:59.571Z,23.84
2022-08-28T09:06:44.116Z,24.15
2022-08-28T09:09:20.165Z,22.56
2022-08-28T09:11:57.374Z,22.46
2022-08-28T09:14:36.527Z,22.33
2022-08-28T09:17:06.120Z,22.96
2022-08-28T09:19:33.806Z,23.87
2022-08-28T09:22:02.018Z,24.86
2022-08-28T09:24:35.565Z,24.73
2022-08-28T09:27:10.021Z,24.89
2022-08-28T09:29:47.176Z,25.18
2022-08-28T09:32:24.087Z,24.61
2022-08-28T09:35:30.051Z,24.78
2022-08-28T09:38:20.916Z,23.70
2022-08-28T09:41:07.150Z,22.46
2022-08-28T09:43:36.727Z,22.97
2022-08-28T09:46:20.745Z,23.09
2022-08-28T09:48:52.428Z,25.55
2022-08-28T09:51:22.831Z,26.00
2022-08-28T09:53:53.654Z,26.30
2022-08-28T09:56:27.372Z,26.90
2022-08-28T09:59:15.430Z,25.74
2022-08-28T10:01:54.984Z,26.19
2022-08-28T10:05:04.016Z,26.44
2022-08-28T10:08:01.345Z,27.08
2022-08-28T10:10:48.085Z,26.46
2022-08-28T10:13:24.016Z,25.83
2022-08-28T10:16:14.441Z,25.82
2022-08-28T10:19:07.025Z,25.72
2022-08-28T10:21:51.261Z,26.82
2022-08-28T10:24:41.646Z,27.14
2022-08-28T10:27:24.842Z,26.69
2022-08-28T10:30:13.162Z,26.63
2022-08-28T10:33:18.127Z,26.88
2022-08-28T10:35:55.632Z,29.42
2022-08-28T10:38:40.248Z,27.99
2022-08-28T10:41:34.202Z,26.11
2022-08-28T10:44:03.824Z,27.52
2022-08-28T10:46:41.932Z,30.92
2022-08-28T10:49:31.060Z,34.58
2022-08-28T10:52:05.154Z,32.38
2022-08-28T10:54:58.974Z,32.98
2022-08-28T10:57:35.011Z,36.17
2022-08-28T11:00:12.866Z,39.15
2022-08-28T11:02:44.240Z,39.65
2022-08-28T11:05:12.733Z,41.01
2022-08-28T11:07:55.172Z,42.26
2022-08-28T11:10:40.967Z,41.51
2022-08-28T11:13:10.345Z,43.28
2022-08-28T11:15:41.814Z,45.54
2022-08-28T11:18:41.428Z,47.52
2022-08-28T11:21:20.588Z,51.43
2022-08-28T11:24:07.582Z,51.54
2022-08-28T11:26:50.636Z,52.84
2022-08-28T11:29:55.660Z,54.22
2022-08-28T11:32:31.067Z,56.65
2022-08-28T11:35:06.453Z,58.62
2022-08-28T11:37:40.546Z,60.20
2022-08-28T11:40:18.343Z,61.76
2022-08-28T11:42:48.890Z,62.28
2022-08-28T11:45:47.858Z,65.04
2022-08-28T11:48:33.794Z,64.61
2022-08-28T11:51:03.880Z,65.83
2022-08-28T11:53:49.326Z,67.07
2022-08-28T11:56:34.999Z,68.19
2022-08-28T11:59:18.200Z,69.47
2022-08-28T12:01:45.922Z,71.24
2022-08-28T12:04:16.692Z,71.72
2022-08-28T12:06:51.685Z,73.10
2022-08-28T12:09:39.549Z,75.07
2022-08-28T12:12:32.678Z,73.38
2022-08-28T12:15:03.095Z,74.16
2022-08-28T12:17:46.648Z,75.08
2022-08-28T12:20:30.074Z,76.30
2022-08-28T12:22:59.955Z,77.11
2022-08-28T12:25:36.461Z,76.89
2022-08-28T12:28:16.844Z,78.67
2022-08-28T12:30:57.154Z,81.48
2022-08-28T12:33:42.764Z,82.51
2022-08-28T12:36:15.674Z,82.71
2022-08-28T12:38:51.415Z,82.44
2022-08-28T12:41:20.954Z,82.50
2022-08-28T12:43:53.288Z,82.83
2022-08-28T12:46:31.227Z,83.88
2022-08-28T12:49:04.640Z,84.61
2022-08-28T12:51:36.242Z,84.33
2022-08-28T12:54:06.865Z,82.72
2022-08-28T12:56:39.111Z,84.20
2022-08-28T12:59:27.573Z,87.65
2022-08-28T13:02:09.737Z,92.54
2022-08-28T13:04:53.978Z,93.81
2022-08-28T13:07:32.255Z,95.62
2022-08-28T13:10:03.882Z,95.32
2022-08-28T13:12:55.589Z,94.76
2022-08-28T13:15:55.319Z,96.03
2022-08-28T13:18:36.557Z,98.43
2022-08-28T13:21:25.551Z,97.02
2022-08-28T13:24:21.290Z,95.33
2022-08-28T13:26:50.920Z,94.58
2022-08-28T13:29:22.455Z,92.02
2022-08-28T13:32:02.092Z,89.17
2022-08-28T13:34:32.520Z,85.02
2022-08-28T13:37:07.423Z,85.49
2022-08-28T13:39:42.467Z,81.16
2022-08-28T13:42:13.741Z,76.43
2022-08-28T13:44:50.841Z,74.54
2022-08-28T13:47:18.069Z,75.02
2022-08-28T13:49:46.646Z,72.37
2022-08-28T13:52:14.275Z,71.91
2022-08-28T13:54:43.741Z,70.81
2022-08-28T13:57:13.815Z,71.87
2022-08-28T13:59:41.680Z,71.42
2022-08-28T14:02:31.239Z,71.06
2022-08-28T14:04:58.895Z,71.86
2022-08-28T14:07:26.198Z,72.39
2022-08-28T14:09:56.380Z,71.66
2022-08-28T14:12:27.863Z,70.71
2022-08-28T14:15:00.224Z,69.73
2022-08-28T14:17:27.645Z,70.63
2022-08-28T14:19:54.845Z,70.10
2022-08-28T14:22:22.145Z,67.78
2022-08-28T14:24:49.535Z,68.11
2022-08-28T14:27:16.747Z,67.37
2022-08-28T14:29:43.952Z,68.20
2022-08-28T14:32:11.669Z,66.83
2022-08-28T14:34:39.018Z,66.56
2022-08-28T14:37:06.522Z,65.92
2022-08-28T14:39:33.776Z,65.30
2022-08-28T14:42:01.988Z,66.52
2022-08-28T14:44:29.479Z,66.72
2022-08-28T14:46:57.319Z,66.34
2022-08-28T14:49:25.927Z,65.41
2022-08-28T14:51:54.263Z,65.59
2022-08-28T14:54:24.205Z,64.44
2022-08-28T14:56:52.666Z,65.16
2022-08-28T14:59:26.076Z,65.45
2022-08-28T15:01:55.667Z,66.97
2022-08-28T15:04:24.815Z,65.08
2022-08-28T15:06:58.379Z,68.26
2022-08-28T15:09:26.795Z,65.76
2022-08-28T15:11:54.467Z,67.45
2022-08-28T15:14:21.884Z,68.96
2022-08-28T15:16:49.469Z,68.84
2022-08-28T15:19:18.158Z,69.38
2022-08-28T15:21:52.045Z,70.06
2022-08-28T15:24:23.507Z,71.36
2022-08-28T15:26:51.109Z,72.00
2022-08-28T15:29:18.501Z,72.31
2022-08-28T15:31:49.078Z,73.03
2022-08-28T15:34:24.157Z,72.72
2022-08-28T15:36:55.560Z,74.33
2022-08-28T15:39:43.795Z,75.02
2022-08-28T15:42:11.620Z,73.95
2022-08-28T15:44:39.071Z,73.25
2022-08-28T15:47:06.955Z,72.83
2022-08-28T15:49:43.686Z,72.51
2022-08-28T15:52:16.202Z,71.31
2022-08-28T15:54:43.409Z,74.15
2022-08-28T15:57:10.605Z,72.94
2022-08-28T15:59:49.945Z,72.76
2022-08-28T16:02:21.249Z,71.37
2022-08-28T16:04:49.179Z,71.29
2022-08-28T16:07:17.424Z,71.93
2022-08-28T16:09:45.390Z,73.30
2022-08-28T16:12:13.357Z,72.54
2022-08-28T16:14:40.550Z,73.22
2022-08-28T16:17:11.058Z,74.13
2022-08-28T16:19:40.314Z,73.84
2022-08-28T16:22:09.486Z,73.79
2022-08-28T16:24:37.284Z,74.86
2022-08-28T16:27:06.376Z,74.95
2022-08-28T16:29:37.439Z,75.13
2022-08-28T16:32:05.631Z,75.04
2022-08-28T16:34:34.877Z,74.86
2022-08-28T16:37:04.347Z,75.63
2022-08-28T16:39:31.792Z,76.75
2022-08-28T16:41:59.380Z,74.83
2022-08-28T16:44:26.767Z,74.20
2022-08-28T16:46:55.246Z,74.99
2022-08-28T16:49:23.914Z,74.10
2022-08-28T16:51:51.556Z,75.10
2022-08-28T16:54:19.149Z,75.84
2022-08-28T16:56:46.754Z,76.74
2022-08-28T16:59:24.093Z,77.97
2022-08-28T17:01:53.008Z,77.09
2022-08-28T17:04:22.139Z,77.77
2022-08-28T17:06:49.489Z,78.57
2022-08-28T17:09:16.972Z,79.68
2022-08-28T17:11:51.659Z,79.74
2022-08-28T17:14:20.640Z,80.53
2022-08-28T17:16:48.480Z,81.88
2022-08-28T17:19:15.869Z,82.62
2022-08-28T17:22:02.384Z,84.17
2022-08-28T17:24:31.098Z,85.51
2022-08-28T17:27:03.243Z,86.01
2022-08-28T17:29:34.178Z,87.70
2022-08-28T17:32:01.976Z,88.04
2022-08-28T17:34:30.534Z,88.98
2022-08-28T17:36:58.045Z,89.28
2022-08-28T17:39:25.815Z,91.87
2022-08-28T17:41:53.052Z,92.77
2022-08-28T17:44:20.426Z,92.71
2022-08-28T17:46:47.955Z,92.54
2022-08-28T17:49:15.175Z,94.21
2022-08-28T17:51:44.320Z,94.53
2022-08-28T17:54:14.666Z,93.86
2022-08-28T17:56:41.969Z,95.15
2022-08-28T17:59:10.437Z,96.03
2022-08-28T18:01:38.534Z,95.54
2022-08-28T18:04:06.030Z,94.93
2022-08-28T18:06:33.806Z,96.29
2022-08-28T18:09:01.666Z,97.08
2022-08-28T18:11:29.060Z,97.63
2022-08-28T18:13:56.297Z,97.14
2022-08-28T18:16:27.611Z,94.94
2022-08-28T18:18:57.772Z,95.01
2022-08-28T18:21:25.451Z,95.01
2022-08-28T18:23:52.790Z,97.21
2022-08-28T18:26:20.276Z,96.63
2022-08-28T18:28:48.302Z,97.01
2022-08-28T18:31:16.536Z,97.15
2022-08-28T18:33:50.000Z,97.14
2022-08-28T18:36:17.405Z,98.13
2022-08-28T18:38:44.995Z,97.44
2022-08-28T18:41:12.308Z,98.53
2022-08-28T18:43:39.729Z,98.29
2022-08-28T18:46:09.270Z,97.69
2022-08-28T18:48:37.894Z,97.46
2022-08-28T18:51:07.854Z,97.94
2022-08-28T18:53:36.077Z,99.85
2022-08-28T18:56:04.507Z,100.00
2022-08-28T18:58:32.225Z,100.00
2022-08-28T19:01:02.267Z,99.70
2022-08-28T19:03:30.258Z,99.93
2022-08-28T19:05:57.651Z,99.23
2022-08-28T19:08:25.924Z,97.82
2022-08-28T19:10:54.182Z,97.39
2022-08-28T19:13:21.868Z,97.44
2022-08-28T19:15:53.035Z,95.31
2022-08-28T19:18:21.003Z,96.72
2022-08-28T19:20:48.247Z,97.86
2022-08-28T19:23:17.850Z,98.54
2022-08-28T19:25:46.096Z,98.47
2022-08-28T19:28:14.022Z,98.32
2022-08-28T19:30:42.249Z,98.93
2022-08-28T19:33:12.601Z,98.32
2022-08-28T19:35:39.826Z,99.58
2022-08-28T19:38:07.355Z,98.63
2022-08-28T19:40:34.760Z,99.08
2022-08-28T19:43:01.988Z,99.59
2022-08-28T19:45:29.753Z,99.79
2022-08-28T19:47:57.644Z,99.49
2022-08-28T19:50:24.851Z,100.00
2022-08-28T19:52:52.298Z,100.00
2022-08-28T19:55:24.075Z,100.00
2022-08-28T19:57:51.510Z,100.00
2022-08-28T20:00:22.386Z,100.00
2022-08-28T20:02:52.418Z,100.00
2022-08-28T20:05:20.665Z,100.00
2022-08-28T20:07:48.487Z,100.00
2022-08-28T20:10:16.294Z,100.00
2022-08-28T20:12:48.807Z,100.00
2022-08-28T20:15:18.892Z,100.00
2022-08-28T20:17:49.770Z,100.00
2022-08-28T20:20:24.563Z,100.00
2022-08-28T20:22:54.386Z,100.00
2022-08-28T20:25:21.980Z,100.00
2022-08-28T20:27:49.209Z,100.00
2022-08-28T20:30:17.588Z,100.00
2022-08-28T20:32:44.800Z,100.00
2022-08-28T20:35:13.376Z,100.00
2022-08-28T20:37:45.393Z,100.00
2022-08-28T20:40:19.285Z,100.00
2022-08-28T20:42:48.656Z,100.00
2022-08-28T20:45:21.375Z,100.00
2022-08-28T20:47:51.993Z,100.00
2022-08-28T20:50:19.755Z,100.00
2022-08-28T20:52:47.091Z,100.00
2022-08-28T20:55:14.964Z,100.00
2022-08-28T20:57:42.312Z,100.00
2022-08-28T21:00:11.480Z,100.00
2022-08-28T21:02:38.931Z,100.00
2022-08-28T21:05:06.799Z,100.00
2022-08-28T21:07:35.281Z,100.00
2022-08-28T21:10:07.049Z,100.00
2022-08-28T21:12:37.125Z,100.00
2022-08-28T21:15:06.824Z,100.00
2022-08-28T21:17:34.541Z,100.00
2022-08-28T21:20:09.370Z,100.00
2022-08-28T21:22:39.101Z,100.00
2022-08-28T21:25:08.295Z,100.00
2022-08-28T21:27:36.317Z,100.00
2022-08-28T21:30:06.037Z,100.00
2022-08-28T21:32:34.192Z,100.00
2022-08-28T21:35:02.679Z,100.00
2022-08-28T21:37:31.377Z,100.00
2022-08-28T21:39:59.685Z,100.00
2022-08-28T21:42:27.927Z,100.00
2022-08-28T21:44:55.567Z,100.00
2022-08-28T21:47:24.381Z,100.00
2022-08-28T21:49:54.274Z,100.00
2022-08-28T21:52:23.678Z,100.00
2022-08-28T21:55:04.894Z,100.00
2022-08-28T21:57:32.628Z,100.00
2022-08-28T21:59:59.984Z,100.00
2022-08-28T22:02:27.673Z,100.00
2022-08-28T22:04:55.168Z,100.00
2022-08-28T22:07:22.717Z,100.00
2022-08-28T22:09:50.820Z,100.00
2022-08-28T22:12:18.736Z,100.00
2022-08-28T22:14:46.185Z,100.00
2022-08-28T22:17:15.139Z,100.00
2022-08-28T22:19:42.906Z,100.00
2022-08-28T22:22:32.321Z,100.00
2022-08-28T22:25:00.074Z,100.00
2022-08-28T22:27:27.647Z,100.00
2022-08-28T22:29:55.648Z,100.00
2022-08-28T22:32:26.971Z,100.00
2022-08-28T22:34:54.847Z,100.00
2022-08-28T22:37:23.287Z,100.00
2022-08-28T22:39:50.858Z,100.00
2022-08-28T22:42:18.101Z,100.00
2022-08-28T22:44:45.306Z,100.00
2022-08-28T22:47:12.792Z,100.00
2022-08-28T22:49:39.975Z,100.00
2022-08-28T22:52:10.437Z,100.00
2022-08-28T22:54:38.722Z,100.00
2022-08-28T22:57:06.069Z,100.00
2022-08-28T22:59:34.432Z,100.00
2022-08-28T23:02:03.669Z,100.00
2022-08-28T23:04:31.201Z,100.00
2022-08-28T23:06:58.494Z,100.00
2022-08-28T23:09:26.418Z,100.00
2022-08-28T23:11:53.643Z,100.00
2022-08-28T23:14:20.856Z,100.00
2022-08-28T23:16:49.154Z,100.00
2022-08-28T23:19:16.984Z,100.00
2022-08-28T23:21:44.562Z,100.00
2022-08-28T23:24:14.322Z,100.00
2022-08-28T23:26:42.428Z,100.00
2022-08-28T23:29:10.814Z,100.00
2022-08-28T23:31:39.171Z,100.00
2022-08-28T23:34:06.796Z,100.00
2022-08-28T23:36:35.715Z,100.00
2022-08-28T23:39:04.529Z,100.00
2022-08-28T23:41:32.936Z,100.00
2022-08-28T23:44:01.682Z,100.00
2022-08-28T23:46:32.247Z,100.00
2022-08-28T23:49:00.234Z,100.00
2022-08-28T23:51:27.676Z,100.00
2022-08-28T23:53:55.522Z,100.00
2022-08-28T23:56:23.297Z,100.00
2022-08-28T23:58:55.545Z,100.00
